sensor_id;sensor_type;location;lat;lon;timestamp;temperature;humidity
71396;DHT22;59888;55.814;37.132;2023-02-28T00:01:41;-5.41;66.56
71396;DHT22;59888;55.814;37.132;2023-02-28T00:04:07;-5.43;66.74
71396;DHT22;59888;55.814;37.132;2023-02-28T00:06:34;-5.44;66.75
71396;DHT22;59888;55.814;37.132;2023-02-28T00:09:00;-5.39;66.87
71396;DHT22;59888;55.814;37.132;2023-02-28T00:11:26;-5.37;66.86
71396;DHT22;59888;55.814;37.132;2023-02-28T00:13:52;-5.33;66.53
71396;DHT22;59888;55.814;37.132;2023-02-28T00:16:20;-5.37;66.68
71396;DHT22;59888;55.814;37.132;2023-02-28T00:18:46;-5.41;66.64
71396;DHT22;59888;55.814;37.132;2023-02-28T00:21:16;-5.44;66.71
71396;DHT22;59888;55.814;37.132;2023-02-28T00:23:42;-5.47;66.91
71396;DHT22;59888;55.814;37.132;2023-02-28T00:26:09;-5.44;66.88
71396;DHT22;59888;55.814;37.132;2023-02-28T00:28:36;-5.41;66.72
71396;DHT22;59888;55.814;37.132;2023-02-28T00:31:02;-5.43;66.88
71396;DHT22;59888;55.814;37.132;2023-02-28T00:33:29;-5.49;67.56
71396;DHT22;59888;55.814;37.132;2023-02-28T00:36:06;-5.46;67.00
71396;DHT22;59888;55.814;37.132;2023-02-28T00:38:36;-5.58;67.65
71396;DHT22;59888;55.814;37.132;2023-02-28T00:41:02;-5.57;67.97
71396;DHT22;59888;55.814;37.132;2023-02-28T00:43:34;-5.58;67.78
71396;DHT22;59888;55.814;37.132;2023-02-28T00:46:01;-5.74;68.78
71396;DHT22;59888;55.814;37.132;2023-02-28T00:48:27;-5.72;68.49
71396;DHT22;59888;55.814;37.132;2023-02-28T00:50:53;-5.81;68.91
71396;DHT22;59888;55.814;37.132;2023-02-28T00:53:20;-5.79;68.52
71396;DHT22;59888;55.814;37.132;2023-02-28T00:55:49;-5.84;68.84
71396;DHT22;59888;55.814;37.132;2023-02-28T00:58:15;-5.79;68.05
71396;DHT22;59888;55.814;37.132;2023-02-28T01:00:40;-5.84;68.26
71396;DHT22;59888;55.814;37.132;2023-02-28T01:03:06;-5.83;67.90
71396;DHT22;59888;55.814;37.132;2023-02-28T01:05:32;-5.86;68.30
71396;DHT22;59888;55.814;37.132;2023-02-28T01:07:58;-5.83;67.91
71396;DHT22;59888;55.814;37.132;2023-02-28T01:10:25;-5.85;68.03
71396;DHT22;59888;55.814;37.132;2023-02-28T01:12:51;-5.78;67.66
71396;DHT22;59888;55.814;37.132;2023-02-28T01:15:17;-5.82;67.83
71396;DHT22;59888;55.814;37.132;2023-02-28T01:17:44;-5.84;67.93
71396;DHT22;59888;55.814;37.132;2023-02-28T01:20:10;-5.86;67.72
71396;DHT22;59888;55.814;37.132;2023-02-28T01:22:36;-5.87;67.63
71396;DHT22;59888;55.814;37.132;2023-02-28T01:25:02;-5.88;67.96
71396;DHT22;59888;55.814;37.132;2023-02-28T01:27:31;-5.89;67.67
71396;DHT22;59888;55.814;37.132;2023-02-28T01:29:57;-5.96;67.78
71396;DHT22;59888;55.814;37.132;2023-02-28T01:32:23;-5.97;67.92
71396;DHT22;59888;55.814;37.132;2023-02-28T01:34:49;-5.99;68.04
71396;DHT22;59888;55.814;37.132;2023-02-28T01:37:15;-6.00;67.98
71396;DHT22;59888;55.814;37.132;2023-02-28T01:39:43;-6.01;67.65
71396;DHT22;59888;55.814;37.132;2023-02-28T01:42:09;-6.09;68.40
71396;DHT22;59888;55.814;37.132;2023-02-28T01:44:59;-6.14;68.29
71396;DHT22;59888;55.814;37.132;2023-02-28T01:47:32;-6.16;68.51
71396;DHT22;59888;55.814;37.132;2023-02-28T01:50:00;-6.17;68.48
71396;DHT22;59888;55.814;37.132;2023-02-28T01:52:30;-6.17;68.17
71396;DHT22;59888;55.814;37.132;2023-02-28T01:54:59;-6.17;68.17
71396;DHT22;59888;55.814;37.132;2023-02-28T01:57:30;-6.19;68.49
71396;DHT22;59888;55.814;37.132;2023-02-28T02:00:09;-6.18;68.31
71396;DHT22;59888;55.814;37.132;2023-02-28T02:02:43;-6.17;68.32
71396;DHT22;59888;55.814;37.132;2023-02-28T02:05:13;-6.19;68.74
71396;DHT22;59888;55.814;37.132;2023-02-28T02:07:41;-6.21;68.87
71396;DHT22;59888;55.814;37.132;2023-02-28T02:10:21;-6.18;68.55
71396;DHT22;59888;55.814;37.132;2023-02-28T02:18:48;-6.20;69.05
71396;DHT22;59888;55.814;37.132;2023-02-28T02:23:53;-6.20;68.36
71396;DHT22;59888;55.814;37.132;2023-02-28T02:26:55;-6.20;68.77
71396;DHT22;59888;55.814;37.132;2023-02-28T02:29:36;-6.20;69.14
71396;DHT22;59888;55.814;37.132;2023-02-28T02:40:13;-6.18;68.34
71396;DHT22;59888;55.814;37.132;2023-02-28T02:46:04;-6.27;68.68
71396;DHT22;59888;55.814;37.132;2023-02-28T02:48:34;-6.28;68.71
71396;DHT22;59888;55.814;37.132;2023-02-28T02:51:03;-6.31;68.94
71396;DHT22;59888;55.814;37.132;2023-02-28T02:53:34;-6.31;68.91
71396;DHT22;59888;55.814;37.132;2023-02-28T02:56:03;-6.29;68.75
71396;DHT22;59888;55.814;37.132;2023-02-28T02:58:37;-6.31;69.00
71396;DHT22;59888;55.814;37.132;2023-02-28T03:01:14;-6.33;69.02
71396;DHT22;59888;55.814;37.132;2023-02-28T03:03:40;-6.32;68.91
71396;DHT22;59888;55.814;37.132;2023-02-28T03:06:06;-6.33;69.42
71396;DHT22;59888;55.814;37.132;2023-02-28T03:08:37;-6.32;68.87
71396;DHT22;59888;55.814;37.132;2023-02-28T03:11:12;-6.33;68.96
71396;DHT22;59888;55.814;37.132;2023-02-28T03:24:49;-6.44;69.16
71396;DHT22;59888;55.814;37.132;2023-02-28T03:27:23;-6.43;68.97
71396;DHT22;59888;55.814;37.132;2023-02-28T03:30:06;-6.46;69.47
71396;DHT22;59888;55.814;37.132;2023-02-28T03:32:38;-6.45;69.22
71396;DHT22;59888;55.814;37.132;2023-02-28T03:35:22;-6.46;69.34
71396;DHT22;59888;55.814;37.132;2023-02-28T03:37:53;-6.43;68.88
71396;DHT22;59888;55.814;37.132;2023-02-28T03:40:22;-6.47;69.45
71396;DHT22;59888;55.814;37.132;2023-02-28T03:42:53;-6.43;68.99
71396;DHT22;59888;55.814;37.132;2023-02-28T03:45:25;-6.49;69.31
71396;DHT22;59888;55.814;37.132;2023-02-28T03:47:57;-6.51;69.50
71396;DHT22;59888;55.814;37.132;2023-02-28T03:50:38;-6.55;69.40
71396;DHT22;59888;55.814;37.132;2023-02-28T03:53:14;-6.53;69.32
71396;DHT22;59888;55.814;37.132;2023-02-28T03:55:51;-6.51;69.21
71396;DHT22;59888;55.814;37.132;2023-02-28T04:03:54;-6.49;68.94
71396;DHT22;59888;55.814;37.132;2023-02-28T04:06:22;-6.51;69.04
71396;DHT22;59888;55.814;37.132;2023-02-28T04:08:49;-6.50;68.92
71396;DHT22;59888;55.814;37.132;2023-02-28T04:11:51;-6.47;68.66
71396;DHT22;59888;55.814;37.132;2023-02-28T04:14:17;-6.49;68.75
71396;DHT22;59888;55.814;37.132;2023-02-28T04:16:44;-6.53;69.02
71396;DHT22;59888;55.814;37.132;2023-02-28T04:19:11;-6.52;68.78
71396;DHT22;59888;55.814;37.132;2023-02-28T04:21:46;-6.51;68.69
71396;DHT22;59888;55.814;37.132;2023-02-28T04:24:15;-6.51;68.65
71396;DHT22;59888;55.814;37.132;2023-02-28T04:26:46;-6.52;68.51
71396;DHT22;59888;55.814;37.132;2023-02-28T04:29:18;-6.51;68.55
71396;DHT22;59888;55.814;37.132;2023-02-28T04:31:44;-6.52;68.54
71396;DHT22;59888;55.814;37.132;2023-02-28T04:34:10;-6.48;68.36
71396;DHT22;59888;55.814;37.132;2023-02-28T04:36:36;-6.46;68.22
71396;DHT22;59888;55.814;37.132;2023-02-28T04:39:02;-6.47;68.23
71396;DHT22;59888;55.814;37.132;2023-02-28T04:41:29;-6.44;68.16
71396;DHT22;59888;55.814;37.132;2023-02-28T04:43:55;-6.44;68.06
71396;DHT22;59888;55.814;37.132;2023-02-28T04:46:22;-6.37;67.95
71396;DHT22;59888;55.814;37.132;2023-02-28T04:48:48;-6.41;67.87
71396;DHT22;59888;55.814;37.132;2023-02-28T04:51:16;-6.37;67.81
71396;DHT22;59888;55.814;37.132;2023-02-28T04:53:43;-6.39;67.70
71396;DHT22;59888;55.814;37.132;2023-02-28T04:56:12;-6.38;67.66
71396;DHT22;59888;55.814;37.132;2023-02-28T04:58:38;-6.34;67.58
71396;DHT22;59888;55.814;37.132;2023-02-28T05:01:16;-6.34;67.54
71396;DHT22;59888;55.814;37.132;2023-02-28T05:03:43;-6.30;67.46
71396;DHT22;59888;55.814;37.132;2023-02-28T05:06:10;-6.26;67.29
71396;DHT22;59888;55.814;37.132;2023-02-28T05:08:37;-6.21;67.23
71396;DHT22;59888;55.814;37.132;2023-02-28T05:11:03;-6.15;66.70
71396;DHT22;59888;55.814;37.132;2023-02-28T05:13:30;-6.11;66.89
71396;DHT22;59888;55.814;37.132;2023-02-28T05:15:56;-6.08;66.83
71396;DHT22;59888;55.814;37.132;2023-02-28T05:18:22;-6.04;66.61
71396;DHT22;59888;55.814;37.132;2023-02-28T05:20:47;-6.04;66.27
71396;DHT22;59888;55.814;37.132;2023-02-28T05:23:14;-6.04;65.85
71396;DHT22;59888;55.814;37.132;2023-02-28T05:25:41;-6.03;66.05
71396;DHT22;59888;55.814;37.132;2023-02-28T05:28:07;-5.99;66.04
71396;DHT22;59888;55.814;37.132;2023-02-28T05:30:33;-5.89;65.75
71396;DHT22;59888;55.814;37.132;2023-02-28T05:32:59;-5.91;65.40
71396;DHT22;59888;55.814;37.132;2023-02-28T05:35:27;-5.83;65.54
71396;DHT22;59888;55.814;37.132;2023-02-28T05:37:52;-5.72;65.53
71396;DHT22;59888;55.814;37.132;2023-02-28T05:40:18;-5.62;65.46
71396;DHT22;59888;55.814;37.132;2023-02-28T05:42:48;-5.62;64.62
71396;DHT22;59888;55.814;37.132;2023-02-28T05:45:15;-5.59;64.26
71396;DHT22;59888;55.814;37.132;2023-02-28T05:47:42;-5.50;64.11
71396;DHT22;59888;55.814;37.132;2023-02-28T05:50:09;-5.50;64.20
71396;DHT22;59888;55.814;37.132;2023-02-28T05:52:36;-5.44;63.63
71396;DHT22;59888;55.814;37.132;2023-02-28T05:55:03;-5.39;63.53
71396;DHT22;59888;55.814;37.132;2023-02-28T05:57:29;-5.29;63.62
71396;DHT22;59888;55.814;37.132;2023-02-28T05:59:55;-5.17;63.74
71396;DHT22;59888;55.814;37.132;2023-02-28T06:02:21;-5.15;62.08
71396;DHT22;59888;55.814;37.132;2023-02-28T06:04:46;-5.07;63.07
71396;DHT22;59888;55.814;37.132;2023-02-28T06:07:12;-4.98;62.30
71396;DHT22;59888;55.814;37.132;2023-02-28T06:09:38;-4.93;61.87
71396;DHT22;59888;55.814;37.132;2023-02-28T06:12:05;-4.93;61.76
71396;DHT22;59888;55.814;37.132;2023-02-28T06:14:34;-4.85;62.22
71396;DHT22;59888;55.814;37.132;2023-02-28T06:17:00;-4.76;62.00
71396;DHT22;59888;55.814;37.132;2023-02-28T06:19:26;-4.66;61.88
71396;DHT22;59888;55.814;37.132;2023-02-28T06:21:53;-4.64;62.02
71396;DHT22;59888;55.814;37.132;2023-02-28T06:24:20;-4.61;60.76
71396;DHT22;59888;55.814;37.132;2023-02-28T06:26:46;-4.58;61.02
71396;DHT22;59888;55.814;37.132;2023-02-28T06:29:12;-4.50;61.42
71396;DHT22;59888;55.814;37.132;2023-02-28T06:31:43;-4.45;61.21
71396;DHT22;59888;55.814;37.132;2023-02-28T06:34:12;-4.38;61.17
71396;DHT22;59888;55.814;37.132;2023-02-28T06:36:39;-4.25;60.75
71396;DHT22;59888;55.814;37.132;2023-02-28T06:39:06;-4.19;60.76
71396;DHT22;59888;55.814;37.132;2023-02-28T06:41:33;-4.13;60.71
71396;DHT22;59888;55.814;37.132;2023-02-28T06:44:04;-4.02;60.65
71396;DHT22;59888;55.814;37.132;2023-02-28T06:46:32;-3.97;60.13
71396;DHT22;59888;55.814;37.132;2023-02-28T06:48:58;-3.84;60.45
71396;DHT22;59888;55.814;37.132;2023-02-28T06:51:23;-3.87;59.45
71396;DHT22;59888;55.814;37.132;2023-02-28T06:53:50;-3.89;59.11
71396;DHT22;59888;55.814;37.132;2023-02-28T06:56:17;-3.85;60.38
71396;DHT22;59888;55.814;37.132;2023-02-28T06:58:50;-3.77;60.16
71396;DHT22;59888;55.814;37.132;2023-02-28T07:01:18;-3.74;59.61
71396;DHT22;59888;55.814;37.132;2023-02-28T07:03:45;-3.77;59.71
71396;DHT22;59888;55.814;37.132;2023-02-28T07:06:12;-3.66;60.11
71396;DHT22;59888;55.814;37.132;2023-02-28T07:08:38;-3.57;60.10
71396;DHT22;59888;55.814;37.132;2023-02-28T07:11:05;-3.49;60.56
71396;DHT22;59888;55.814;37.132;2023-02-28T07:13:31;-3.51;59.43
71396;DHT22;59888;55.814;37.132;2023-02-28T07:16:02;-3.46;59.96
71396;DHT22;59888;55.814;37.132;2023-02-28T07:18:29;-3.43;59.39
71396;DHT22;59888;55.814;37.132;2023-02-28T07:20:55;-3.36;59.84
71396;DHT22;59888;55.814;37.132;2023-02-28T07:23:21;-3.33;59.89
71396;DHT22;59888;55.814;37.132;2023-02-28T07:25:49;-3.38;59.72
71396;DHT22;59888;55.814;37.132;2023-02-28T07:28:15;-3.30;59.96
71396;DHT22;59888;55.814;37.132;2023-02-28T07:30:42;-3.24;60.38
71396;DHT22;59888;55.814;37.132;2023-02-28T07:33:08;-3.10;60.83
71396;DHT22;59888;55.814;37.132;2023-02-28T07:35:34;-3.03;60.41
71396;DHT22;59888;55.814;37.132;2023-02-28T07:38:00;-2.94;60.54
71396;DHT22;59888;55.814;37.132;2023-02-28T07:40:26;-2.80;60.69
71396;DHT22;59888;55.814;37.132;2023-02-28T07:42:52;-2.65;60.72
71396;DHT22;59888;55.814;37.132;2023-02-28T07:45:18;-2.66;60.53
71396;DHT22;59888;55.814;37.132;2023-02-28T07:47:45;-2.54;60.22
71396;DHT22;59888;55.814;37.132;2023-02-28T07:50:14;-2.48;59.91
71396;DHT22;59888;55.814;37.132;2023-02-28T07:52:40;-2.38;60.31
71396;DHT22;59888;55.814;37.132;2023-02-28T07:55:08;-2.44;60.29
71396;DHT22;59888;55.814;37.132;2023-02-28T07:57:35;-2.39;60.85
71396;DHT22;59888;55.814;37.132;2023-02-28T08:00:03;-2.38;60.26
71396;DHT22;59888;55.814;37.132;2023-02-28T08:02:37;-2.26;60.20
71396;DHT22;59888;55.814;37.132;2023-02-28T08:05:04;-2.18;59.93
71396;DHT22;59888;55.814;37.132;2023-02-28T08:07:30;-2.14;59.66
71396;DHT22;59888;55.814;37.132;2023-02-28T08:09:55;-2.08;60.47
71396;DHT22;59888;55.814;37.132;2023-02-28T08:12:21;-2.03;60.43
71396;DHT22;59888;55.814;37.132;2023-02-28T08:14:47;-2.04;60.27
71396;DHT22;59888;55.814;37.132;2023-02-28T08:17:13;-1.94;59.39
71396;DHT22;59888;55.814;37.132;2023-02-28T08:19:39;-1.91;59.65
71396;DHT22;59888;55.814;37.132;2023-02-28T08:22:05;-1.79;60.11
71396;DHT22;59888;55.814;37.132;2023-02-28T08:24:30;-1.65;60.18
71396;DHT22;59888;55.814;37.132;2023-02-28T08:26:56;-1.72;59.77
71396;DHT22;59888;55.814;37.132;2023-02-28T08:29:22;-1.88;60.20
71396;DHT22;59888;55.814;37.132;2023-02-28T08:31:48;-1.98;60.48
71396;DHT22;59888;55.814;37.132;2023-02-28T08:34:15;-1.95;61.31
71396;DHT22;59888;55.814;37.132;2023-02-28T08:36:41;-1.95;61.50
71396;DHT22;59888;55.814;37.132;2023-02-28T08:39:10;-2.04;61.89
71396;DHT22;59888;55.814;37.132;2023-02-28T08:41:36;-2.04;62.06
71396;DHT22;59888;55.814;37.132;2023-02-28T08:44:02;-2.03;62.17
71396;DHT22;59888;55.814;37.132;2023-02-28T08:46:28;-2.06;61.95
71396;DHT22;59888;55.814;37.132;2023-02-28T08:48:55;-2.07;62.16
71396;DHT22;59888;55.814;37.132;2023-02-28T08:51:24;-1.93;62.23
71396;DHT22;59888;55.814;37.132;2023-02-28T08:53:59;-1.88;62.05
71396;DHT22;59888;55.814;37.132;2023-02-28T08:56:27;-2.00;61.82
71396;DHT22;59888;55.814;37.132;2023-02-28T08:58:55;-2.05;61.83
71396;DHT22;59888;55.814;37.132;2023-02-28T09:01:27;-2.02;62.36
71396;DHT22;59888;55.814;37.132;2023-02-28T09:03:54;-2.01;62.12
71396;DHT22;59888;55.814;37.132;2023-02-28T09:06:22;-1.89;62.08
71396;DHT22;59888;55.814;37.132;2023-02-28T09:08:48;-1.74;61.63
71396;DHT22;59888;55.814;37.132;2023-02-28T09:11:15;-1.62;61.61
71396;DHT22;59888;55.814;37.132;2023-02-28T09:13:41;-1.62;61.13
71396;DHT22;59888;55.814;37.132;2023-02-28T09:16:10;-1.44;61.67
71396;DHT22;59888;55.814;37.132;2023-02-28T09:18:37;-1.46;60.99
71396;DHT22;59888;55.814;37.132;2023-02-28T09:21:06;-1.44;61.21
71396;DHT22;59888;55.814;37.132;2023-02-28T09:23:32;-1.44;61.41
71396;DHT22;59888;55.814;37.132;2023-02-28T09:25:58;-1.40;61.49
71396;DHT22;59888;55.814;37.132;2023-02-28T09:28:24;-1.50;61.46
71396;DHT22;59888;55.814;37.132;2023-02-28T09:30:53;-1.64;62.07
71396;DHT22;59888;55.814;37.132;2023-02-28T09:33:19;-1.64;62.24
71396;DHT22;59888;55.814;37.132;2023-02-28T09:35:50;-1.54;62.51
71396;DHT22;59888;55.814;37.132;2023-02-28T09:38:17;-1.48;62.35
71396;DHT22;59888;55.814;37.132;2023-02-28T09:40:58;-1.59;62.53
71396;DHT22;59888;55.814;37.132;2023-02-28T09:43:29;-1.59;62.67
71396;DHT22;59888;55.814;37.132;2023-02-28T09:48:48;-1.49;62.90
71396;DHT22;59888;55.814;37.132;2023-02-28T09:51:33;-1.54;63.05
71396;DHT22;59888;55.814;37.132;2023-02-28T09:54:01;-1.62;63.18
71396;DHT22;59888;55.814;37.132;2023-02-28T09:56:32;-1.54;63.35
71396;DHT22;59888;55.814;37.132;2023-02-28T09:59:36;-1.54;63.08
71396;DHT22;59888;55.814;37.132;2023-02-28T10:05:16;-1.60;63.78
71396;DHT22;59888;55.814;37.132;2023-02-28T10:07:58;-1.62;63.95
71396;DHT22;59888;55.814;37.132;2023-02-28T10:10:36;-1.63;64.20
71396;DHT22;59888;55.814;37.132;2023-02-28T10:13:28;-1.49;63.99
71396;DHT22;59888;55.814;37.132;2023-02-28T10:15:58;-1.45;63.93
71396;DHT22;59888;55.814;37.132;2023-02-28T10:18:32;-1.56;64.20
71396;DHT22;59888;55.814;37.132;2023-02-28T10:21:03;-1.49;64.14
71396;DHT22;59888;55.814;37.132;2023-02-28T10:23:34;-1.43;64.05
71396;DHT22;59888;55.814;37.132;2023-02-28T10:26:09;-1.35;64.10
71396;DHT22;59888;55.814;37.132;2023-02-28T10:28:36;-1.33;64.22
71396;DHT22;59888;55.814;37.132;2023-02-28T10:31:02;-1.42;64.26
71396;DHT22;59888;55.814;37.132;2023-02-28T10:33:35;-1.38;64.72
71396;DHT22;59888;55.814;37.132;2023-02-28T10:36:03;-1.36;64.82
71396;DHT22;59888;55.814;37.132;2023-02-28T10:38:34;-1.38;64.82
71396;DHT22;59888;55.814;37.132;2023-02-28T10:41:16;-1.30;64.86
71396;DHT22;59888;55.814;37.132;2023-02-28T10:43:44;-1.25;64.95
71396;DHT22;59888;55.814;37.132;2023-02-28T10:46:18;-1.32;65.14
71396;DHT22;59888;55.814;37.132;2023-02-28T10:49:29;-1.26;65.15
71396;DHT22;59888;55.814;37.132;2023-02-28T10:51:57;-1.15;65.01
71396;DHT22;59888;55.814;37.132;2023-02-28T10:54:31;-1.06;64.87
71396;DHT22;59888;55.814;37.132;2023-02-28T10:57:18;-1.11;65.01
71396;DHT22;59888;55.814;37.132;2023-02-28T10:59:45;-1.03;65.08
71396;DHT22;59888;55.814;37.132;2023-02-28T11:02:34;-1.00;65.17
71396;DHT22;59888;55.814;37.132;2023-02-28T11:05:00;-1.06;65.41
71396;DHT22;59888;55.814;37.132;2023-02-28T11:07:27;-0.99;65.20
71396;DHT22;59888;55.814;37.132;2023-02-28T11:09:57;-0.96;65.24
71396;DHT22;59888;55.814;37.132;2023-02-28T11:12:39;-0.94;65.27
71396;DHT22;59888;55.814;37.132;2023-02-28T11:15:34;-0.90;65.19
71396;DHT22;59888;55.814;37.132;2023-02-28T11:20:51;-0.90;65.56
71396;DHT22;59888;55.814;37.132;2023-02-28T11:23:18;-0.83;65.47
71396;DHT22;59888;55.814;37.132;2023-02-28T11:25:51;-0.75;65.56
71396;DHT22;59888;55.814;37.132;2023-02-28T11:28:39;-0.71;65.43
71396;DHT22;59888;55.814;37.132;2023-02-28T11:33:49;-0.82;66.27
71396;DHT22;59888;55.814;37.132;2023-02-28T11:36:28;-0.82;66.27
71396;DHT22;59888;55.814;37.132;2023-02-28T11:38:58;-0.80;66.35
71396;DHT22;59888;55.814;37.132;2023-02-28T11:42:04;-0.93;67.58
71396;DHT22;59888;55.814;37.132;2023-02-28T11:48:08;-0.99;69.16
71396;DHT22;59888;55.814;37.132;2023-02-28T11:51:01;-1.01;69.65
71396;DHT22;59888;55.814;37.132;2023-02-28T11:57:32;-1.01;70.53
71396;DHT22;59888;55.814;37.132;2023-02-28T11:59:56;-1.06;70.58
71396;DHT22;59888;55.814;37.132;2023-02-28T12:02:29;-1.01;70.23
71396;DHT22;59888;55.814;37.132;2023-02-28T12:16:15;-0.91;71.02
71396;DHT22;59888;55.814;37.132;2023-02-28T12:26:36;-0.93;71.37
71396;DHT22;59888;55.814;37.132;2023-02-28T12:29:29;-0.85;71.38
71396;DHT22;59888;55.814;37.132;2023-02-28T12:32:06;-0.85;71.73
71396;DHT22;59888;55.814;37.132;2023-02-28T12:34:36;-0.86;71.24
71396;DHT22;59888;55.814;37.132;2023-02-28T12:37:08;-0.83;71.18
71396;DHT22;59888;55.814;37.132;2023-02-28T12:39:44;-0.81;71.50
71396;DHT22;59888;55.814;37.132;2023-02-28T12:42:13;-0.82;71.63
71396;DHT22;59888;55.814;37.132;2023-02-28T12:47:59;-0.82;72.00
71396;DHT22;59888;55.814;37.132;2023-02-28T12:50:26;-0.74;71.38
71396;DHT22;59888;55.814;37.132;2023-02-28T12:55:45;-0.65;71.29
71396;DHT22;59888;55.814;37.132;2023-02-28T13:09:59;-0.49;70.45
71396;DHT22;59888;55.814;37.132;2023-02-28T13:12:26;-0.50;70.56
71396;DHT22;59888;55.814;37.132;2023-02-28T13:15:04;-0.58;71.48
71396;DHT22;59888;55.814;37.132;2023-02-28T13:17:32;-0.64;71.86
71396;DHT22;59888;55.814;37.132;2023-02-28T13:19:59;-0.66;72.37
71396;DHT22;59888;55.814;37.132;2023-02-28T13:24:55;-0.61;72.20
71396;DHT22;59888;55.814;37.132;2023-02-28T13:27:33;-0.55;71.87
71396;DHT22;59888;55.814;37.132;2023-02-28T13:30:01;-0.54;71.93
71396;DHT22;59888;55.814;37.132;2023-02-28T13:32:30;-0.47;71.49
71396;DHT22;59888;55.814;37.132;2023-02-28T13:42:46;-0.47;71.70
71396;DHT22;59888;55.814;37.132;2023-02-28T13:47:41;-0.39;71.51
71396;DHT22;59888;55.814;37.132;2023-02-28T13:56:18;-0.37;71.84
71396;DHT22;59888;55.814;37.132;2023-02-28T13:59:26;-0.46;72.70
71396;DHT22;59888;55.814;37.132;2023-02-28T14:05:13;-0.42;72.83
71396;DHT22;59888;55.814;37.132;2023-02-28T14:07:55;-0.40;72.87
71396;DHT22;59888;55.814;37.132;2023-02-28T14:11:08;-0.39;72.94
71396;DHT22;59888;55.814;37.132;2023-02-28T14:16:02;-0.42;73.73
71396;DHT22;59888;55.814;37.132;2023-02-28T14:18:33;-0.39;73.55
71396;DHT22;59888;55.814;37.132;2023-02-28T14:21:24;-0.45;74.78
71396;DHT22;59888;55.814;37.132;2023-02-28T14:29:29;-0.43;75.42
71396;DHT22;59888;55.814;37.132;2023-02-28T14:37:38;-0.30;74.94
71396;DHT22;59888;55.814;37.132;2023-02-28T14:40:16;-0.36;76.08
71396;DHT22;59888;55.814;37.132;2023-02-28T14:42:48;-0.28;75.57
71396;DHT22;59888;55.814;37.132;2023-02-28T14:45:20;-0.26;75.41
71396;DHT22;59888;55.814;37.132;2023-02-28T14:47:48;-0.27;75.98
71396;DHT22;59888;55.814;37.132;2023-02-28T14:50:31;-0.29;76.44
71396;DHT22;59888;55.814;37.132;2023-02-28T14:52:58;-0.27;76.04
71396;DHT22;59888;55.814;37.132;2023-02-28T14:55:50;-0.22;76.41
71396;DHT22;59888;55.814;37.132;2023-02-28T14:58:28;-0.25;77.34
71396;DHT22;59888;55.814;37.132;2023-02-28T15:00:58;-0.19;76.57
71396;DHT22;59888;55.814;37.132;2023-02-28T15:03:34;-0.13;76.08
71396;DHT22;59888;55.814;37.132;2023-02-28T15:06:05;-0.19;76.92
71396;DHT22;59888;55.814;37.132;2023-02-28T15:08:32;-0.13;76.66
71396;DHT22;59888;55.814;37.132;2023-02-28T15:11:07;-0.10;77.24
71396;DHT22;59888;55.814;37.132;2023-02-28T15:13:44;-0.02;76.33
71396;DHT22;59888;55.814;37.132;2023-02-28T15:26:32;0.05;75.84
71396;DHT22;59888;55.814;37.132;2023-02-28T15:29:06;0.03;75.83
71396;DHT22;59888;55.814;37.132;2023-02-28T15:31:35;0.06;76.09
71396;DHT22;59888;55.814;37.132;2023-02-28T15:34:06;0.16;75.31
71396;DHT22;59888;55.814;37.132;2023-02-28T15:36:33;0.20;75.52
71396;DHT22;59888;55.814;37.132;2023-02-28T15:39:23;0.28;75.24
71396;DHT22;59888;55.814;37.132;2023-02-28T15:41:49;0.24;75.73
71396;DHT22;59888;55.814;37.132;2023-02-28T15:44:26;0.30;75.52
71396;DHT22;59888;55.814;37.132;2023-02-28T15:47:07;0.35;75.57
71396;DHT22;59888;55.814;37.132;2023-02-28T15:52:15;0.39;76.07
71396;DHT22;59888;55.814;37.132;2023-02-28T15:54:42;0.47;74.88
71396;DHT22;59888;55.814;37.132;2023-02-28T15:57:29;0.50;74.57
71396;DHT22;59888;55.814;37.132;2023-02-28T16:00:02;0.58;74.63
71396;DHT22;59888;55.814;37.132;2023-02-28T16:02:38;0.63;74.20
71396;DHT22;59888;55.814;37.132;2023-02-28T16:07:41;0.65;74.28
71396;DHT22;59888;55.814;37.132;2023-02-28T16:10:09;0.61;74.60
71396;DHT22;59888;55.814;37.132;2023-02-28T16:12:38;0.59;74.90
71396;DHT22;59888;55.814;37.132;2023-02-28T16:15:28;0.57;75.07
71396;DHT22;59888;55.814;37.132;2023-02-28T16:17:55;0.59;74.78
71396;DHT22;59888;55.814;37.132;2023-02-28T16:20:27;0.64;74.61
71396;DHT22;59888;55.814;37.132;2023-02-28T16:22:54;0.60;74.51
71396;DHT22;59888;55.814;37.132;2023-02-28T16:25:24;0.55;74.70
71396;DHT22;59888;55.814;37.132;2023-02-28T16:27:52;0.61;74.70
71396;DHT22;59888;55.814;37.132;2023-02-28T16:30:25;0.65;74.44
71396;DHT22;59888;55.814;37.132;2023-02-28T16:32:52;0.66;74.60
71396;DHT22;59888;55.814;37.132;2023-02-28T16:35:20;0.66;74.83
71396;DHT22;59888;55.814;37.132;2023-02-28T16:37:46;0.71;74.31
71396;DHT22;59888;55.814;37.132;2023-02-28T16:40:17;0.71;74.17
71396;DHT22;59888;55.814;37.132;2023-02-28T16:42:45;0.65;74.75
71396;DHT22;59888;55.814;37.132;2023-02-28T16:45:16;0.68;74.70
71396;DHT22;59888;55.814;37.132;2023-02-28T16:47:45;0.69;74.57
71396;DHT22;59888;55.814;37.132;2023-02-28T16:50:22;0.76;74.44
71396;DHT22;59888;55.814;37.132;2023-02-28T16:52:49;0.79;74.35
71396;DHT22;59888;55.814;37.132;2023-02-28T16:55:18;0.75;74.38
71396;DHT22;59888;55.814;37.132;2023-02-28T16:57:50;0.78;74.33
71396;DHT22;59888;55.814;37.132;2023-02-28T17:00:17;0.82;74.20
71396;DHT22;59888;55.814;37.132;2023-02-28T17:02:43;0.89;74.67
71396;DHT22;59888;55.814;37.132;2023-02-28T17:05:12;0.97;74.09
71396;DHT22;59888;55.814;37.132;2023-02-28T17:07:40;1.03;73.81
71396;DHT22;59888;55.814;37.132;2023-02-28T17:12:42;1.16;73.77
71396;DHT22;59888;55.814;37.132;2023-02-28T17:15:10;1.23;73.18
71396;DHT22;59888;55.814;37.132;2023-02-28T17:17:36;1.22;73.01
71396;DHT22;59888;55.814;37.132;2023-02-28T17:20:02;1.26;72.96
71396;DHT22;59888;55.814;37.132;2023-02-28T17:22:28;1.28;72.64
71396;DHT22;59888;55.814;37.132;2023-02-28T17:24:54;1.28;72.80
71396;DHT22;59888;55.814;37.132;2023-02-28T17:27:21;1.26;72.61
71396;DHT22;59888;55.814;37.132;2023-02-28T17:29:47;1.18;72.78
71396;DHT22;59888;55.814;37.132;2023-02-28T17:32:13;1.12;72.90
71396;DHT22;59888;55.814;37.132;2023-02-28T17:34:39;1.13;72.68
71396;DHT22;59888;55.814;37.132;2023-02-28T17:37:05;1.06;72.37
71396;DHT22;59888;55.814;37.132;2023-02-28T17:39:31;1.03;72.29
71396;DHT22;59888;55.814;37.132;2023-02-28T17:41:57;1.05;71.99
71396;DHT22;59888;55.814;37.132;2023-02-28T17:44:23;0.98;71.74
71396;DHT22;59888;55.814;37.132;2023-02-28T17:46:50;1.01;71.67
71396;DHT22;59888;55.814;37.132;2023-02-28T17:49:17;0.97;71.19
71396;DHT22;59888;55.814;37.132;2023-02-28T17:51:43;1.01;71.37
71396;DHT22;59888;55.814;37.132;2023-02-28T17:54:09;1.03;71.16
71396;DHT22;59888;55.814;37.132;2023-02-28T17:56:35;1.01;70.74
71396;DHT22;59888;55.814;37.132;2023-02-28T17:59:01;1.10;71.06
71396;DHT22;59888;55.814;37.132;2023-02-28T18:01:28;1.13;70.68
71396;DHT22;59888;55.814;37.132;2023-02-28T18:03:54;1.13;70.21